Time;durP1;ratioP1;P1;durP2;ratioP2;P2;SDS_P1;SDS_P2;PMS_P1;PMS_P2;Temp;Humidity;BMP_temperature;BMP_pressure;BME280_temperature;BME280_humidity;BME280_pressure;Samples;Min_cycle;Max_cycle;Signal;HPM_P1;HPM_P2
2022/01/27 00:01:07;;;;;;;30.10;14.93;;;6.10;99.90;;;;;;5054348;28;20128;-74
2022/01/27 00:03:49;;;;;;;30.70;15.95;;;6.10;99.90;;;;;;5053407;28;20071;-74
2022/01/27 00:06:16;;;;;;;31.83;14.18;;;6.10;99.90;;;;;;5051559;28;20483;-74
2022/01/27 00:08:52;;;;;;;31.63;15.40;;;6.10;99.90;;;;;;5052624;28;20053;-74
2022/01/27 00:11:17;;;;;;;28.17;15.82;;;6.00;99.90;;;;;;5085479;28;20495;-74
2022/01/27 00:13:47;;;;;;;34.28;17.48;;;6.10;99.90;;;;;;5052230;28;20102;-73
2022/01/27 00:18:43;;;;;;;27.42;13.27;;;6.00;99.90;;;;;;5052156;28;20072;-74
2022/01/27 00:21:10;;;;;;;36.95;15.90;;;6.00;99.90;;;;;;5052959;28;20090;-74
2022/01/27 00:23:36;;;;;;;31.23;15.95;;;6.00;99.90;;;;;;5050605;28;20059;-74
2022/01/27 00:26:02;;;;;;;28.85;15.57;;;6.00;99.90;;;;;;5053109;28;20044;-74
2022/01/27 00:28:27;;;;;;;31.90;16.48;;;6.00;99.90;;;;;;5051605;28;20056;-74
2022/01/27 00:30:54;;;;;;;35.30;16.33;;;6.00;99.90;;;;;;5051299;28;20033;-74
2022/01/27 00:33:19;;;;;;;28.65;15.00;;;6.00;99.90;;;;;;5051498;28;20049;-74
2022/01/27 00:35:45;;;;;;;37.05;17.50;;;6.00;99.90;;;;;;5085365;28;20045;-74
2022/01/27 00:38:11;;;;;;;35.22;17.42;;;6.00;99.90;;;;;;5050450;28;20053;-74
2022/01/27 00:40:37;;;;;;;32.60;18.40;;;6.00;99.90;;;;;;5051538;28;20045;-74
2022/01/27 00:43:02;;;;;;;28.13;15.52;;;5.90;99.90;;;;;;5051008;28;20078;-73
2022/01/27 00:45:30;;;;;;;34.13;16.00;;;5.90;99.90;;;;;;5050212;28;20045;-74
2022/01/27 00:47:56;;;;;;;30.13;17.35;;;6.00;99.90;;;;;;5084740;28;20059;-74
2022/01/27 00:50:22;;;;;;;24.42;14.13;;;6.00;99.90;;;;;;5052354;28;20403;-74
2022/01/27 00:52:51;;;;;;;28.13;16.10;;;6.00;99.90;;;;;;5049030;28;20098;-75
2022/01/27 00:55:18;;;;;;;32.08;17.52;;;6.00;99.90;;;;;;5084015;28;20048;-74
2022/01/27 01:00:36;;;;;;;30.00;15.20;;;5.90;99.90;;;;;;5052215;28;20103;-74
2022/01/27 01:03:07;;;;;;;34.65;17.40;;;5.90;99.90;;;;;;5051652;28;20064;-74
2022/01/27 01:14:11;;;;;;;29.10;16.98;;;5.90;99.90;;;;;;5050115;28;20059;-73
2022/01/27 01:16:08;;;;;;;32.42;15.50;;;5.90;99.90;;;;;;5050634;28;20088;-74
2022/01/27 01:31:54;;;;;;;44.58;19.48;;;5.70;99.90;;;;;;5030322;28;20084;-74
2022/01/27 01:34:23;;;;;;;29.13;16.90;;;5.70;99.90;;;;;;5030660;28;20140;-73
2022/01/27 01:37:00;;;;;;;33.47;19.08;;;5.60;99.90;;;;;;5050108;28;20048;-74
2022/01/27 01:39:34;;;;;;;36.97;18.70;;;5.60;99.90;;;;;;5051673;28;20041;-74
2022/01/27 01:42:01;;;;;;;32.63;17.13;;;5.60;99.90;;;;;;5049494;28;20122;-74
2022/01/27 01:44:27;;;;;;;32.63;17.85;;;5.60;99.90;;;;;;5050388;28;20087;-73
2022/01/27 01:46:54;;;;;;;32.58;20.20;;;5.60;99.90;;;;;;5050771;28;20049;-75
2022/01/27 01:49:22;;;;;;;27.73;18.42;;;5.60;99.90;;;;;;5049990;28;20649;-74
2022/01/27 01:51:49;;;;;;;33.47;21.33;;;5.60;99.90;;;;;;5083455;28;20053;-74
2022/01/27 01:54:14;;;;;;;29.70;19.52;;;5.60;99.90;;;;;;5049393;28;20043;-74
2022/01/27 01:56:43;;;;;;;31.23;18.48;;;5.60;99.90;;;;;;5083781;28;20442;-74
2022/01/27 01:59:09;;;;;;;36.50;19.05;;;5.60;99.90;;;;;;5050296;28;20079;-74
2022/01/27 02:01:35;;;;;;;34.47;19.75;;;5.60;99.90;;;;;;5050022;28;20059;-74
2022/01/27 02:04:06;;;;;;;34.72;18.75;;;5.60;99.90;;;;;;5049807;28;20055;-74
2022/01/27 02:06:40;;;;;;;29.40;17.85;;;5.50;99.90;;;;;;5049793;28;20057;-74
2022/01/27 02:20:06;;;;;;;32.85;18.75;;;5.50;99.90;;;;;;5049686;28;20496;-73
2022/01/27 02:22:32;;;;;;;31.48;19.58;;;5.50;99.90;;;;;;5050482;28;20080;-74
2022/01/27 02:24:58;;;;;;;34.80;20.67;;;5.50;99.90;;;;;;5050524;28;20518;-74
2022/01/27 02:27:23;;;;;;;35.20;20.67;;;5.60;99.90;;;;;;5050931;28;20049;-74
2022/01/27 02:29:49;;;;;;;39.83;20.75;;;5.60;99.90;;;;;;5048888;28;20852;-74
2022/01/27 02:32:16;;;;;;;37.53;19.63;;;5.70;99.90;;;;;;5083135;28;20199;-74
2022/01/27 02:34:42;;;;;;;34.90;19.30;;;5.70;99.90;;;;;;5049446;28;20128;-72
2022/01/27 02:37:09;;;;;;;34.83;20.70;;;5.70;99.90;;;;;;5049640;28;20051;-73
2022/01/27 02:39:35;;;;;;;33.58;18.83;;;5.80;99.90;;;;;;5049541;28;20041;-74
2022/01/27 02:42:10;;;;;;;40.65;19.70;;;5.80;99.90;;;;;;5049262;28;20045;-74
2022/01/27 02:44:54;;;;;;;32.78;20.88;;;5.80;99.90;;;;;;5048856;28;20037;-74
2022/01/27 02:47:21;;;;;;;34.28;21.33;;;5.80;99.90;;;;;;5049676;28;20052;-75
2022/01/27 02:49:50;;;;;;;33.72;20.50;;;5.80;99.90;;;;;;5049111;28;20504;-74
2022/01/27 02:52:16;;;;;;;37.80;19.10;;;5.80;99.90;;;;;;5048869;28;20625;-74
2022/01/27 02:54:42;;;;;;;33.00;19.83;;;5.80;99.90;;;;;;5049166;28;20551;-74
2022/01/27 02:57:08;;;;;;;30.33;19.08;;;5.90;99.90;;;;;;5083135;28;20174;-73
2022/01/27 02:59:34;;;;;;;32.67;20.52;;;5.90;99.90;;;;;;5048668;28;20510;-73
2022/01/27 03:01:59;;;;;;;35.65;21.77;;;5.90;99.90;;;;;;5048895;28;20437;-74
2022/01/27 03:04:26;;;;;;;34.47;21.42;;;5.90;99.90;;;;;;5048578;28;20399;-74
2022/01/27 03:06:52;;;;;;;34.78;20.63;;;5.80;99.90;;;;;;5082754;28;20053;-73
2022/01/27 03:09:18;;;;;;;34.70;21.05;;;5.90;99.90;;;;;;5049433;28;20048;-74
2022/01/27 03:11:47;;;;;;;36.15;21.45;;;5.80;99.90;;;;;;5049630;28;20123;-74
2022/01/27 03:14:22;;;;;;;37.30;23.67;;;5.80;99.90;;;;;;5049421;28;20037;-74
2022/01/27 03:16:57;;;;;;;37.70;22.02;;;5.80;99.90;;;;;;5048990;28;20119;-74
2022/01/27 03:19:22;;;;;;;37.85;22.67;;;5.80;99.90;;;;;;5048528;28;20056;-74
2022/01/27 03:21:49;;;;;;;41.70;21.00;;;5.90;99.90;;;;;;5048702;28;20049;-73
2022/01/27 03:24:15;;;;;;;35.60;19.05;;;5.80;99.90;;;;;;5052508;28;20061;-73
2022/01/27 03:26:42;;;;;;;41.55;21.52;;;5.90;99.90;;;;;;5052038;28;20049;-74
2022/01/27 03:29:07;;;;;;;35.13;20.25;;;5.80;99.90;;;;;;5053100;28;20484;-74
2022/01/27 03:31:33;;;;;;;37.47;21.63;;;5.90;99.90;;;;;;5086772;28;20052;-74
2022/01/27 03:33:59;;;;;;;32.03;19.77;;;5.90;99.90;;;;;;5051812;28;20155;-74
2022/01/27 03:36:25;;;;;;;35.88;21.63;;;5.90;99.90;;;;;;5086435;28;20052;-74
2022/01/27 03:38:51;;;;;;;38.58;21.77;;;5.90;99.90;;;;;;5052591;28;20377;-74
2022/01/27 03:41:22;;;;;;;46.25;23.92;;;5.90;99.90;;;;;;5051970;28;20080;-74
2022/01/27 03:43:49;;;;;;;40.55;22.05;;;5.90;99.90;;;;;;5053841;28;20045;-74
2022/01/27 03:46:16;;;;;;;36.55;19.75;;;5.90;99.90;;;;;;5052800;28;20132;-74
2022/01/27 03:48:42;;;;;;;36.17;18.73;;;5.90;99.90;;;;;;5051641;28;20057;-74
2022/01/27 03:51:08;;;;;;;43.00;21.35;;;5.90;99.90;;;;;;5086106;28;20547;-74
2022/01/27 03:53:34;;;;;;;40.53;18.88;;;5.90;99.90;;;;;;5051868;28;20113;-74
2022/01/27 03:56:01;;;;;;;36.50;17.98;;;5.90;99.90;;;;;;5052294;28;20549;-74
2022/01/27 03:58:26;;;;;;;37.72;17.85;;;5.90;99.90;;;;;;5052280;28;20049;-74
2022/01/27 04:00:52;;;;;;;39.75;19.00;;;5.90;99.90;;;;;;5051248;28;20087;-74
2022/01/27 04:03:20;;;;;;;39.03;18.08;;;6.00;99.90;;;;;;5052202;28;20110;-74
2022/01/27 04:05:52;;;;;;;32.63;18.08;;;6.00;99.90;;;;;;5053067;28;20191;-74
2022/01/27 04:08:18;;;;;;;;;;;6.00;99.90;;;;;;5051879;28;20041;-73
2022/01/27 04:10:44;;;;;;;31.00;17.40;;;6.00;99.90;;;;;;5051621;28;19967;-73
2022/01/27 04:13:10;;;;;;;35.70;18.80;;;6.00;99.90;;;;;;5085713;28;20091;-73
2022/01/27 04:15:37;;;;;;;38.28;17.50;;;6.00;99.90;;;;;;5084859;28;20044;-74
2022/01/27 04:18:04;;;;;;;33.97;17.77;;;6.10;99.90;;;;;;5052050;28;20055;-73
2022/01/27 04:20:30;;;;;;;39.47;18.75;;;6.10;99.90;;;;;;5051983;28;20057;-74
2022/01/27 04:22:55;;;;;;;40.55;19.23;;;6.10;99.90;;;;;;5050750;28;20541;-74
2022/01/27 04:25:21;;;;;;;37.97;18.65;;;6.10;99.90;;;;;;5052848;28;20522;-75
2022/01/27 04:27:52;;;;;;;40.25;18.88;;;6.10;99.90;;;;;;5052976;28;20049;-74
2022/01/27 04:30:21;;;;;;;34.05;18.25;;;6.10;99.90;;;;;;5052368;28;20045;-74
2022/01/27 04:33:00;;;;;;;37.13;17.60;;;6.10;99.90;;;;;;5051326;28;20083;-73
2022/01/27 04:35:29;;;;;;;31.88;17.08;;;6.10;99.90;;;;;;5051058;28;20052;-73
2022/01/27 04:38:06;;;;;;;39.92;18.48;;;6.00;99.90;;;;;;5051842;28;20106;-74
2022/01/27 04:40:46;;;;;;;41.42;18.05;;;6.00;99.90;;;;;;5081885;28;20053;-74
2022/01/27 04:43:27;;;;;;;34.35;16.27;;;6.00;99.90;;;;;;5030837;28;20049;-73
2022/01/27 04:48:41;;;;;;;35.60;17.98;;;5.90;99.90;;;;;;5032447;28;20547;-74
2022/01/27 04:51:10;;;;;;;30.95;16.83;;;6.00;99.90;;;;;;5030677;28;20041;-74
2022/01/27 04:53:42;;;;;;;38.75;20.08;;;6.00;99.90;;;;;;5032527;28;20073;-74
2022/01/27 04:56:12;;;;;;;;;;;6.10;99.90;;;;;;5032609;28;20503;-74
2022/01/27 04:58:38;;;;;;;41.28;17.27;;;6.10;99.90;;;;;;5030745;28;19957;-74
2022/01/27 05:01:05;;;;;;;27.50;16.60;;;6.10;99.90;;;;;;5031442;28;20049;-74
2022/01/27 05:03:37;;;;;;;32.65;18.05;;;6.10;99.90;;;;;;5031062;28;20463;-73
2022/01/27 05:06:03;;;;;;;42.13;18.45;;;6.00;99.90;;;;;;5030490;28;20042;-73
2022/01/27 05:08:29;;;;;;;38.75;16.88;;;6.00;99.90;;;;;;5030998;28;20107;-74
2022/01/27 05:11:00;;;;;;;40.92;18.42;;;6.00;99.90;;;;;;5029917;28;20045;-74
2022/01/27 05:13:28;;;;;;;39.40;17.00;;;6.00;99.90;;;;;;5030980;28;20408;-74
2022/01/27 05:15:54;;;;;;;34.58;17.10;;;6.00;99.90;;;;;;5064173;28;20073;-74
2022/01/27 05:18:20;;;;;;;34.65;16.40;;;5.90;99.90;;;;;;5030202;28;20083;-73
2022/01/27 05:20:47;;;;;;;38.70;16.90;;;6.00;99.90;;;;;;5030645;28;20045;-74
2022/01/27 05:23:12;;;;;;;42.17;18.50;;;6.00;99.90;;;;;;5030687;28;20061;-73
2022/01/27 05:25:38;;;;;;;34.45;15.75;;;6.00;99.90;;;;;;5029366;28;20053;-74
2022/01/27 05:28:06;;;;;;;38.08;16.27;;;5.90;99.90;;;;;;5040323;28;20049;-74
2022/01/27 05:30:32;;;;;;;37.35;16.88;;;5.90;99.90;;;;;;5050707;28;20182;-74
2022/01/27 05:32:57;;;;;;;31.27;15.02;;;7.10;99.90;;;;;;5049575;28;20488;-74
2022/01/27 05:35:23;;;;;;;37.10;15.77;;;5.90;99.90;;;;;;5050465;28;20041;-74
2022/01/27 05:37:49;;;;;;;35.20;17.42;;;5.90;99.90;;;;;;5049010;28;20564;-74
2022/01/27 05:40:14;;;;;;;43.05;17.55;;;6.00;99.90;;;;;;5049431;28;20040;-74
2022/01/27 05:42:40;;;;;;;37.80;17.35;;;5.90;99.90;;;;;;5050024;28;20132;-74
2022/01/27 05:45:06;;;;;;;43.00;17.67;;;5.90;99.90;;;;;;5050530;28;20128;-74
2022/01/27 05:47:31;;;;;;;28.75;14.60;;;5.90;99.90;;;;;;5049628;28;20056;-75
2022/01/27 05:49:57;;;;;;;33.85;18.40;;;5.80;99.90;;;;;;5051424;28;20179;-75
2022/01/27 05:52:22;;;;;;;38.20;18.10;;;5.80;99.90;;;;;;5051918;28;20041;-74
2022/01/27 05:54:48;;;;;;;47.22;20.70;;;5.90;99.90;;;;;;5049126;28;20554;-74
2022/01/27 05:57:14;;;;;;;39.70;18.35;;;5.90;99.90;;;;;;5050214;28;20047;-74
2022/01/27 05:59:40;;;;;;;41.22;17.60;;;5.80;99.90;;;;;;5049874;28;20057;-74
2022/01/27 06:02:05;;;;;;;42.17;17.45;;;5.80;99.90;;;;;;5050677;28;20427;-74
2022/01/27 06:04:31;;;;;;;44.47;19.17;;;5.90;99.90;;;;;;5049992;28;20048;-74
2022/01/27 06:06:57;;;;;;;40.13;16.17;;;5.80;99.90;;;;;;5049615;28;20061;-75
2022/01/27 06:09:22;;;;;;;45.67;16.70;;;5.90;99.90;;;;;;5050186;28;20037;-75
2022/01/27 06:11:48;;;;;;;41.60;17.77;;;5.90;99.90;;;;;;5049136;28;20110;-75
2022/01/27 06:14:13;;;;;;;38.50;19.38;;;5.90;99.90;;;;;;5082966;28;20063;-74
2022/01/27 06:16:39;;;;;;;43.65;17.38;;;5.90;99.90;;;;;;5083412;28;20053;-75
2022/01/27 06:19:07;;;;;;;39.92;17.13;;;6.00;99.90;;;;;;5049686;28;20076;-75
2022/01/27 06:21:35;;;;;;;34.28;15.27;;;5.90;99.90;;;;;;5050225;28;20500;-75
2022/01/27 06:24:01;;;;;;;38.97;18.00;;;6.00;99.90;;;;;;5082809;28;20061;-75
2022/01/27 06:26:29;;;;;;;45.13;17.70;;;6.00;99.90;;;;;;5049578;28;20067;-75
2022/01/27 06:28:55;;;;;;;44.00;18.65;;;6.00;99.90;;;;;;5082490;28;20076;-75
2022/01/27 06:31:21;;;;;;;29.60;15.63;;;6.00;99.90;;;;;;5049530;28;20041;-75
2022/01/27 06:33:47;;;;;;;45.83;17.73;;;6.10;99.90;;;;;;5049151;28;20062;-75
2022/01/27 06:36:12;;;;;;;38.88;16.27;;;6.10;99.90;;;;;;5065461;28;20053;-75
2022/01/27 06:38:38;;;;;;;37.58;17.15;;;6.10;99.90;;;;;;5083074;28;20056;-76
2022/01/27 06:41:03;;;;;;;34.85;16.13;;;6.10;99.90;;;;;;5049559;28;20226;-76
2022/01/27 06:43:29;;;;;;;184.65;27.15;;;6.20;99.90;;;;;;5082154;28;20052;-78
2022/01/27 06:45:55;;;;;;;36.25;15.38;;;6.20;99.90;;;;;;5049176;28;20403;-78
2022/01/27 06:48:20;;;;;;;37.97;16.73;;;6.10;99.90;;;;;;5051038;28;20052;-78
2022/01/27 06:50:51;;;;;;;41.25;17.90;;;6.20;99.90;;;;;;5050059;28;20041;-78
2022/01/27 06:53:16;;;;;;;38.35;17.73;;;6.20;99.90;;;;;;5049610;28;20091;-78
2022/01/27 06:55:42;;;;;;;42.17;17.20;;;6.20;99.90;;;;;;5049143;28;20492;-78
2022/01/27 06:58:08;;;;;;;35.40;14.77;;;6.20;99.90;;;;;;5049266;28;20045;-78
2022/01/27 07:00:33;;;;;;;37.63;15.35;;;6.30;99.90;;;;;;5051866;28;20484;-78
2022/01/27 07:02:59;;;;;;;42.33;16.77;;;6.30;99.90;;;;;;5054359;28;20048;-79
2022/01/27 07:05:24;;;;;;;40.58;15.68;;;6.20;99.90;;;;;;5085849;28;20132;-79
2022/01/27 07:07:50;;;;;;;36.35;15.52;;;6.30;99.90;;;;;;5054301;28;20083;-80
2022/01/27 07:10:16;;;;;;;33.83;13.07;;;6.30;99.90;;;;;;5054635;28;20127;-80
2022/01/27 07:12:42;;;;;;;27.75;12.95;;;7.40;99.90;;;;;;5053448;28;20048;-79
2022/01/27 07:15:08;;;;;;;28.45;12.40;;;6.30;99.90;;;;;;5054576;28;20051;-80
2022/01/27 07:17:34;;;;;;;25.45;11.80;;;6.30;99.90;;;;;;5052634;28;20044;-80
2022/01/27 07:20:00;;;;;;;31.73;14.40;;;6.40;99.90;;;;;;5052547;28;20047;-80
2022/01/27 07:22:25;;;;;;;39.25;13.75;;;6.40;99.90;;;;;;5054054;28;20060;-80
2022/01/27 07:24:51;;;;;;;30.80;13.23;;;6.40;99.90;;;;;;5051021;28;20056;-80
2022/01/27 07:27:17;;;;;;;22.92;12.23;;;6.40;99.90;;;;;;5052193;28;20080;-80
2022/01/27 07:29:43;;;;;;;27.58;11.15;;;6.40;99.90;;;;;;5052627;28;20526;-80
2022/01/27 07:32:09;;;;;;;26.48;13.95;;;6.40;99.90;;;;;;5049420;28;20404;-81
2022/01/27 07:34:34;;;;;;;33.80;12.90;;;6.50;99.90;;;;;;5051874;28;20053;-80
2022/01/27 07:37:02;;;;;;;30.25;13.18;;;6.50;99.90;;;;;;5072105;28;20140;-80
2022/01/27 07:39:27;;;;;;;24.95;11.13;;;6.50;99.90;;;;;;5051924;28;20053;-80
2022/01/27 07:41:56;;;;;;;26.23;11.40;;;6.50;99.90;;;;;;5052261;28;20055;-80
2022/01/27 07:44:22;;;;;;;21.90;10.45;;;6.60;99.90;;;;;;5057245;28;20081;-80
2022/01/27 07:46:48;;;;;;;29.02;13.30;;;6.60;99.90;;;;;;5052165;28;20072;-80
2022/01/27 07:49:13;;;;;;;28.27;13.10;;;6.70;99.90;;;;;;5050777;28;20096;-79
2022/01/27 07:51:39;;;;;;;26.73;11.48;;;6.70;99.90;;;;;;5051748;28;20052;-81
2022/01/27 07:54:04;;;;;;;40.75;13.32;;;6.70;99.90;;;;;;5053061;28;20106;-79
2022/01/27 07:56:30;;;;;;;359.35;40.75;;;6.80;99.90;;;;;;5052249;28;20095;-79
2022/01/27 07:58:56;;;;;;;26.60;11.65;;;6.80;99.90;;;;;;5052273;28;20492;-79
2022/01/27 08:01:21;;;;;;;32.15;11.77;;;6.80;99.90;;;;;;5052262;28;20044;-79
2022/01/27 08:03:47;;;;;;;37.95;14.77;;;6.90;99.90;;;;;;5051291;28;20048;-79
2022/01/27 08:06:13;;;;;;;26.77;10.38;;;6.90;99.90;;;;;;5045374;28;20392;-73
2022/01/27 08:08:39;;;;;;;25.10;10.30;;;6.90;99.90;;;;;;5038878;28;20094;-70
2022/01/27 08:11:05;;;;;;;26.98;9.90;;;6.90;99.90;;;;;;5051651;28;20562;-75
2022/01/27 08:13:31;;;;;;;35.80;11.70;;;6.90;99.90;;;;;;5050398;28;20128;-70
2022/01/27 08:15:57;;;;;;;26.17;10.23;;;7.00;99.90;;;;;;5047178;28;20045;-75
2022/01/27 08:18:23;;;;;;;27.98;9.38;;;7.00;99.90;;;;;;5049617;28;20051;-70
2022/01/27 08:20:49;;;;;;;40.53;11.63;;;7.00;99.90;;;;;;5049906;28;20508;-68
2022/01/27 08:23:15;;;;;;;24.40;8.50;;;7.10;99.90;;;;;;5084618;28;20114;-69
2022/01/27 08:25:42;;;;;;;23.20;8.95;;;7.10;99.90;;;;;;5051124;28;20132;-70
2022/01/27 08:28:19;;;;;;;26.25;8.90;;;7.20;99.90;;;;;;5050651;28;20080;-71
2022/01/27 08:30:48;;;;;;;14.35;7.72;;;7.30;99.90;;;;;;5050960;28;20412;-72
2022/01/27 08:33:18;;;;;;;22.27;8.65;;;7.30;99.90;;;;;;5049956;28;20053;-71
2022/01/27 08:35:44;;;;;;;24.05;8.38;;;7.30;99.90;;;;;;5078840;28;20128;-80
2022/01/27 08:38:10;;;;;;;17.63;6.40;;;7.30;99.90;;;;;;5051024;28;20127;-78
2022/01/27 08:40:36;;;;;;;26.00;7.95;;;7.40;99.90;;;;;;5050942;28;20674;-76
2022/01/27 08:43:02;;;;;;;29.83;7.28;;;7.40;99.90;;;;;;5050098;28;20499;-75
2022/01/27 08:45:28;;;;;;;19.27;7.13;;;7.40;99.90;;;;;;5049876;28;20450;-73
2022/01/27 08:47:56;;;;;;;21.65;7.70;;;7.40;99.90;;;;;;5048425;28;20045;-73
2022/01/27 08:50:24;;;;;;;24.38;7.35;;;7.40;99.90;;;;;;5078065;28;20072;-75
2022/01/27 08:52:49;;;;;;;30.65;8.90;;;7.50;99.90;;;;;;5034872;28;20113;-74
2022/01/27 08:55:16;;;;;;;22.08;7.70;;;7.50;99.90;;;;;;5063703;28;20140;-74
2022/01/27 08:57:42;;;;;;;21.15;7.82;;;7.50;99.90;;;;;;5062485;28;20132;-74
2022/01/27 09:00:10;;;;;;;21.63;6.38;;;7.50;99.90;;;;;;5038157;28;20055;-69
2022/01/27 09:02:36;;;;;;;22.15;7.15;;;7.50;99.90;;;;;;5050913;28;20041;-71
2022/01/27 09:05:02;;;;;;;16.00;6.22;;;7.60;99.90;;;;;;5048188;28;20056;-72
2022/01/27 09:07:27;;;;;;;21.40;6.45;;;7.50;99.90;;;;;;5049819;28;20049;-72
2022/01/27 09:09:53;;;;;;;27.00;6.80;;;7.60;99.90;;;;;;5050186;28;20059;-71
2022/01/27 09:12:18;;;;;;;12.75;4.72;;;7.60;99.90;;;;;;5048486;28;20148;-71
2022/01/27 09:14:45;;;;;;;22.00;6.40;;;7.60;99.90;;;;;;5050577;28;20178;-72
2022/01/27 09:17:12;;;;;;;22.48;5.72;;;7.60;99.90;;;;;;5036750;28;20057;-72
2022/01/27 09:19:40;;;;;;;17.30;6.65;;;7.60;99.90;;;;;;5064019;28;20396;-72
2022/01/27 09:22:15;;;;;;;19.75;5.43;;;7.70;99.90;;;;;;5039070;28;20064;-71
2022/01/27 09:24:59;;;;;;;22.10;6.72;;;7.60;99.90;;;;;;5049514;28;20060;-72
2022/01/27 09:27:26;;;;;;;21.48;5.93;;;7.70;99.90;;;;;;5051921;28;20076;-69
2022/01/27 09:29:52;;;;;;;16.85;5.47;;;7.70;99.90;;;;;;5051692;28;20444;-70
2022/01/27 09:32:19;;;;;;;21.60;6.10;;;7.80;99.90;;;;;;5049981;28;20414;-69
2022/01/27 09:34:45;;;;;;;19.65;5.70;;;7.80;99.90;;;;;;5049967;28;20098;-70
2022/01/27 09:37:12;;;;;;;22.15;5.53;;;7.80;99.90;;;;;;5051174;28;20037;-70
2022/01/27 09:39:38;;;;;;;22.92;5.80;;;7.80;99.90;;;;;;5049383;28;20064;-70
2022/01/27 09:42:06;;;;;;;18.52;4.80;;;7.80;99.90;;;;;;5050074;28;20490;-70
2022/01/27 09:44:33;;;;;;;24.92;6.85;;;7.80;99.90;;;;;;5050479;28;20128;-70
2022/01/27 09:47:13;;;;;;;17.67;6.03;;;7.80;99.90;;;;;;5044423;28;20391;-70
2022/01/27 09:52:08;;;;;;;23.00;6.45;;;7.80;99.90;;;;;;5034641;28;20059;-70
2022/01/27 09:54:34;;;;;;;20.50;5.35;;;7.80;99.90;;;;;;5049400;28;20052;-70
2022/01/27 09:57:01;;;;;;;17.42;5.93;;;7.90;99.90;;;;;;5050079;28;20436;-70
2022/01/27 09:59:26;;;;;;;21.65;6.32;;;8.00;99.90;;;;;;5050492;28;20478;-70
2022/01/27 10:01:55;;;;;;;21.25;7.90;;;7.90;99.90;;;;;;5049787;28;20049;-70
2022/01/27 10:04:23;;;;;;;29.73;6.85;;;8.00;99.90;;;;;;5049914;28;20045;-69
2022/01/27 10:06:57;;;;;;;25.17;5.25;;;8.00;99.90;;;;;;5048965;28;20040;-69
2022/01/27 10:09:29;;;;;;;21.13;6.00;;;8.00;99.90;;;;;;5050010;28;20061;-69
2022/01/27 10:11:54;;;;;;;17.15;4.78;;;8.10;99.90;;;;;;5049782;28;20040;-70
2022/01/27 10:14:26;;;;;;;19.05;4.85;;;8.10;99.90;;;;;;5049299;28;20518;-70
2022/01/27 10:16:58;;;;;;;17.85;4.20;;;8.10;99.90;;;;;;5050721;28;20087;-70
2022/01/27 10:19:26;;;;;;;21.38;5.30;;;8.10;99.90;;;;;;5050965;28;20044;-70
2022/01/27 10:21:59;;;;;;;12.23;4.13;;;8.20;99.90;;;;;;5048732;28;20495;-70
2022/01/27 10:24:28;;;;;;;16.73;3.80;;;8.20;99.90;;;;;;5049702;28;20500;-70
2022/01/27 10:32:43;;;;;;;22.23;5.60;;;8.40;99.90;;;;;;5029276;28;20488;-70
2022/01/27 10:35:11;;;;;;;16.65;4.47;;;8.40;99.90;;;;;;5047482;28;20179;-70
2022/01/27 10:38:02;;;;;;;21.25;5.45;;;8.50;99.90;;;;;;5049371;28;20530;-70
2022/01/27 10:40:27;;;;;;;23.70;5.60;;;8.50;99.90;;;;;;5049249;28;20049;-70
2022/01/27 10:43:04;;;;;;;14.20;4.75;;;8.50;99.90;;;;;;5048221;28;20060;-71
2022/01/27 10:45:29;;;;;;;19.38;4.60;;;8.60;99.90;;;;;;5049206;28;20045;-71
2022/01/27 10:48:13;;;;;;;20.65;4.70;;;8.60;99.90;;;;;;5049039;28;20049;-71
2022/01/27 10:51:16;;;;;;;12.75;4.25;;;8.60;99.90;;;;;;5048282;28;20048;-69
2022/01/27 10:53:54;;;;;;;12.25;3.67;;;8.60;99.90;;;;;;5048938;28;20064;-71
2022/01/27 10:56:34;;;;;;;25.80;6.78;;;8.60;99.90;;;;;;5049999;28;20084;-70
2022/01/27 10:59:06;;;;;;;21.88;6.85;;;8.60;99.90;;;;;;5048802;28;20133;-70
2022/01/27 11:01:39;;;;;;;16.30;4.80;;;8.70;99.90;;;;;;5050069;28;20458;-70
2022/01/27 11:04:08;;;;;;;16.95;4.75;;;8.70;99.90;;;;;;5048047;28;20124;-71
2022/01/27 11:06:35;;;;;;;20.20;4.22;;;8.70;99.90;;;;;;5048927;28;20076;-71
2022/01/27 11:09:10;;;;;;;19.65;3.78;;;8.70;99.90;;;;;;5050318;28;20404;-71
2022/01/27 11:11:39;;;;;;;28.95;6.68;;;8.70;99.90;;;;;;5049449;28;20395;-71
2022/01/27 11:14:05;;;;;;;17.85;5.47;;;8.70;99.90;;;;;;5050561;28;20049;-71
2022/01/27 11:16:37;;;;;;;16.67;4.95;;;8.70;99.90;;;;;;5049200;28;20403;-70
2022/01/27 11:19:36;;;;;;;19.70;4.35;;;8.70;99.90;;;;;;5049285;28;20107;-70
2022/01/27 11:25:51;;;;;;;19.65;4.30;;;8.70;99.90;;;;;;5040528;28;20061;-71
2022/01/27 11:27:55;;;;;;;15.95;4.53;;;8.70;99.90;;;;;;5049922;28;20057;-71
2022/01/27 11:30:51;;;;;;;21.00;4.93;;;8.80;99.90;;;;;;5046807;28;20144;-69
2022/01/27 11:33:17;;;;;;;22.65;4.45;;;8.80;99.90;;;;;;5047365;28;20072;-70
2022/01/27 11:35:44;;;;;;;18.48;4.93;;;8.80;99.90;;;;;;5048398;28;20052;-70
2022/01/27 11:38:10;;;;;;;18.17;3.97;;;8.80;99.90;;;;;;5048492;28;20132;-70
2022/01/27 11:40:41;;;;;;;14.93;4.65;;;8.80;99.90;;;;;;5049816;28;20061;-74
2022/01/27 11:43:07;;;;;;;17.85;3.67;;;8.80;99.90;;;;;;5049019;28;20158;-78
2022/01/27 11:45:40;;;;;;;19.73;4.40;;;8.80;99.90;;;;;;5050668;28;20507;-77
2022/01/27 11:48:19;;;;;;;17.73;3.85;;;8.90;99.90;;;;;;5052307;28;20042;-77
2022/01/27 11:53:30;;;;;;;17.30;4.10;;;8.90;99.90;;;;;;5085079;28;20132;-77
2022/01/27 11:56:05;;;;;;;19.15;4.45;;;8.90;99.90;;;;;;5032183;28;20064;-77
2022/01/27 11:58:40;;;;;;;20.75;4.30;;;8.90;99.90;;;;;;5032655;28;20054;-78
2022/01/27 12:01:14;;;;;;;24.45;4.10;;;8.90;99.90;;;;;;5041292;28;20044;-76
2022/01/27 12:04:01;;;;;;;18.33;4.15;;;8.90;99.90;;;;;;5040799;28;20091;-75
2022/01/27 12:06:26;;;;;;;23.92;4.32;;;9.00;99.90;;;;;;5046933;28;20049;-76
2022/01/27 12:09:21;;;;;;;23.77;4.97;;;9.00;99.90;;;;;;5047908;28;20044;-76
2022/01/27 12:11:50;;;;;;;27.52;4.75;;;9.00;99.90;;;;;;5048970;28;20257;-76
2022/01/27 12:14:26;;;;;;;15.48;3.60;;;9.00;99.90;;;;;;5050966;28;20056;-77
2022/01/27 12:17:07;;;;;;;13.15;3.25;;;9.00;99.90;;;;;;5051316;28;20518;-76
2022/01/27 12:19:56;;;;;;;27.08;4.72;;;9.00;99.90;;;;;;5051549;28;20056;-76
2022/01/27 12:22:49;;;;;;;17.50;3.97;;;9.00;99.90;;;;;;5051329;28;20083;-77
2022/01/27 12:25:15;;;;;;;21.17;4.00;;;9.00;99.90;;;;;;5052149;28;20124;-76
2022/01/27 12:27:49;;;;;;;27.80;5.35;;;9.00;99.90;;;;;;5051268;28;20107;-77
2022/01/27 12:30:15;;;;;;;22.45;4.22;;;9.00;99.90;;;;;;5048702;28;20049;-79
2022/01/27 12:32:41;;;;;;;13.63;3.15;;;9.00;99.90;;;;;;5047364;28;20385;-72
2022/01/27 12:35:15;;;;;;;20.35;4.93;;;9.00;99.90;;;;;;5052095;28;20084;-71
2022/01/27 12:37:46;;;;;;;21.27;4.85;;;9.00;99.90;;;;;;5051500;28;20476;-72
2022/01/27 12:40:28;;;;;;;15.70;3.13;;;9.00;99.90;;;;;;5051537;28;20099;-72
2022/01/27 12:43:01;;;;;;;20.77;4.47;;;9.00;99.90;;;;;;5051489;28;20049;-73
2022/01/27 12:45:35;;;;;;;18.80;3.63;;;9.00;99.90;;;;;;5052604;28;20096;-72
2022/01/27 12:48:08;;;;;;;16.35;4.03;;;9.00;99.90;;;;;;5050130;28;20388;-74
2022/01/27 12:50:35;;;;;;;19.05;4.10;;;9.00;99.90;;;;;;5050718;28;20080;-72
2022/01/27 12:53:08;;;;;;;16.35;3.90;;;9.00;99.90;;;;;;5050528;28;20442;-73
2022/01/27 12:55:37;;;;;;;15.55;4.28;;;9.10;99.90;;;;;;5049970;28;20040;-74
2022/01/27 12:58:10;;;;;;;18.27;4.57;;;9.00;99.90;;;;;;5052273;28;20500;-71
2022/01/27 13:00:45;;;;;;;18.17;4.40;;;9.00;99.90;;;;;;5051609;28;20037;-70
2022/01/27 13:03:11;;;;;;;18.55;4.85;;;9.00;99.90;;;;;;5050283;28;20049;-70
2022/01/27 13:05:39;;;;;;;18.25;3.83;;;9.10;99.90;;;;;;5050152;28;20554;-70
2022/01/27 13:08:10;;;;;;;19.02;4.53;;;9.00;99.90;;;;;;5050951;28;20049;-70
2022/01/27 13:10:44;;;;;;;23.95;4.82;;;9.00;99.90;;;;;;5051443;28;20077;-68
2022/01/27 13:13:14;;;;;;;16.20;3.78;;;9.00;99.90;;;;;;5050781;28;20059;-68
2022/01/27 13:15:41;;;;;;;14.57;2.10;;;9.10;99.90;;;;;;5051910;28;20051;-68
2022/01/27 13:18:13;;;;;;;18.27;4.18;;;9.10;99.90;;;;;;5048787;28;20488;-68
2022/01/27 13:20:43;;;;;;;15.50;2.85;;;9.20;99.90;;;;;;5048108;28;20102;-68
2022/01/27 13:23:20;;;;;;;20.35;4.38;;;9.20;99.90;;;;;;5051049;28;20060;-68
2022/01/27 13:25:49;;;;;;;19.02;4.47;;;9.20;99.90;;;;;;5065874;28;20407;-68
2022/01/27 13:28:21;;;;;;;19.88;3.53;;;9.20;99.90;;;;;;5051385;28;20102;-70
2022/01/27 13:30:51;;;;;;;20.33;4.18;;;9.20;99.90;;;;;;5048347;28;20073;-70
2022/01/27 13:33:20;;;;;;;14.73;3.35;;;9.10;99.90;;;;;;5041061;28;20057;-71
2022/01/27 13:35:46;;;;;;;22.75;4.13;;;9.10;99.90;;;;;;5049737;28;20577;-69
2022/01/27 13:38:29;;;;;;;22.90;4.13;;;9.10;99.90;;;;;;5049667;28;20053;-70
2022/01/27 13:41:16;;;;;;;16.10;3.58;;;9.10;99.90;;;;;;5048806;28;20537;-72
2022/01/27 13:43:44;;;;;;;14.07;3.60;;;9.00;99.90;;;;;;5037058;28;20060;-72